Covington, Ohio
Current Conditions -  °F | °C
As of 1:55 AM on Monday 24 Nov 2014 (Local Time) from KVES Reporting Station
Light Rain Light Rain  
Wind Chill: 55°   Ceiling: 900
Heat Index: 55°   Visibility: 7mi
Dew Point: 55°   Wind: 21mph
Humidity: 100%   Direction: 220°SW
Pressure: 29.21"   Gusts: 31mph
Location:  40.12°N, 84.35°W
Report Text: KVES 240655Z AUTO 22018G27KT 7SM -RA OVC009 13/13 A2921 RMK AO2 P0003
Loading
Personal Weather Stations






























Interactive Weather Map New forecast layout! Learn more

10-Day Weather Forecast

Advertisements
Track Severe Weather on mobile